createdAt,value
2019-06-20T00:02:04.869Z,36.90
2019-06-20T00:04:33.135Z,36.30
2019-06-20T00:07:01.482Z,36.80
2019-06-20T00:09:29.717Z,35.40
2019-06-20T00:11:57.957Z,37.40
2019-06-20T00:14:26.240Z,36.90
2019-06-20T00:16:54.546Z,37.30
2019-06-20T00:19:22.844Z,36.80
2019-06-20T00:21:51.177Z,37.30
2019-06-20T00:24:19.431Z,37.30
2019-06-20T00:26:47.688Z,37.30
2019-06-20T00:29:15.955Z,37.20
2019-06-20T00:31:44.246Z,36.60
2019-06-20T00:34:12.560Z,37.20
2019-06-20T00:36:40.822Z,37.10
2019-06-20T00:39:09.101Z,37.00
2019-06-20T00:41:37.437Z,37.00
2019-06-20T00:44:05.819Z,37.00
2019-06-20T00:46:34.055Z,36.90
2019-06-20T00:49:02.335Z,38.30
2019-06-20T00:51:30.595Z,38.50
2019-06-20T00:53:58.827Z,39.70
2019-06-20T00:56:27.115Z,38.30
2019-06-20T00:58:55.363Z,38.40
2019-06-20T01:01:23.631Z,38.20
2019-06-20T01:03:52.562Z,37.10
2019-06-20T01:06:20.852Z,38.10
2019-06-20T01:08:49.125Z,39.50
2019-06-20T01:11:17.398Z,41.20
2019-06-20T01:13:45.697Z,42.60
2019-06-20T01:16:13.965Z,42.60
2019-06-20T01:18:42.271Z,41.40
2019-06-20T01:21:10.542Z,41.90
2019-06-20T01:23:38.829Z,42.50
2019-06-20T01:26:07.184Z,42.40
2019-06-20T01:28:35.447Z,42.30
2019-06-20T01:31:03.703Z,42.20
2019-06-20T01:33:32.001Z,42.60
2019-06-20T01:36:00.260Z,43.70
2019-06-20T01:38:28.500Z,43.50
2019-06-20T01:40:56.799Z,44.40
2019-06-20T01:43:25.106Z,45.00
2019-06-20T01:45:53.377Z,44.60
2019-06-20T01:48:21.679Z,44.90
2019-06-20T01:50:49.912Z,44.90
2019-06-20T01:53:18.237Z,45.20
2019-06-20T01:55:46.508Z,45.50
2019-06-20T01:58:14.812Z,46.50
2019-06-20T02:00:45.407Z,45.80
2019-06-20T02:03:14.470Z,46.20
2019-06-20T02:05:42.925Z,47.30
2019-06-20T02:08:11.456Z,46.90
2019-06-20T02:10:39.972Z,47.10
2019-06-20T02:13:08.209Z,46.90
2019-06-20T02:15:36.498Z,47.80
2019-06-20T02:18:04.775Z,47.30
2019-06-20T02:20:50.720Z,47.40
2019-06-20T02:23:19.033Z,47.00
2019-06-20T02:25:47.313Z,47.40
2019-06-20T02:28:15.789Z,47.20
2019-06-20T02:30:44.014Z,46.50
2019-06-20T02:33:12.297Z,46.60
2019-06-20T02:35:40.586Z,46.50
2019-06-20T02:38:08.925Z,46.40
2019-06-20T02:40:37.750Z,45.70
2019-06-20T02:43:05.980Z,45.60
2019-06-20T02:45:35.034Z,45.20
2019-06-20T02:48:03.331Z,44.90
2019-06-20T02:50:31.620Z,44.50
2019-06-20T02:53:00.005Z,44.40
2019-06-20T02:55:28.321Z,44.50
2019-06-20T02:57:56.632Z,45.50
2019-06-20T03:00:34.078Z,47.00
2019-06-20T03:03:02.461Z,46.00
2019-06-20T03:05:30.739Z,46.20
2019-06-20T03:07:58.973Z,46.90
2019-06-20T03:10:27.342Z,46.60
2019-06-20T03:12:55.579Z,47.90
2019-06-20T03:15:23.897Z,46.40
2019-06-20T03:17:52.294Z,47.80
2019-06-20T03:20:20.518Z,47.80
2019-06-20T03:22:48.796Z,47.70
2019-06-20T03:25:17.990Z,47.60
2019-06-20T03:27:46.386Z,47.50
2019-06-20T03:30:14.652Z,47.80
2019-06-20T03:32:42.958Z,48.80
2019-06-20T03:35:11.243Z,49.10
2019-06-20T03:37:39.631Z,47.50
2019-06-20T03:40:08.027Z,47.50
2019-06-20T03:42:36.255Z,48.40
2019-06-20T03:45:06.094Z,48.50
2019-06-20T03:47:34.400Z,48.10
2019-06-20T03:50:03.269Z,47.50
2019-06-20T03:52:31.585Z,47.90
2019-06-20T03:54:59.857Z,48.00
2019-06-20T03:57:28.141Z,48.40
2019-06-20T03:59:56.389Z,48.20
2019-06-20T04:02:24.724Z,47.50
2019-06-20T04:04:52.988Z,48.00
2019-06-20T04:07:21.523Z,48.10
2019-06-20T04:09:49.785Z,47.50
2019-06-20T04:12:18.067Z,47.70
2019-06-20T04:14:48.959Z,48.30
2019-06-20T04:17:16.401Z,48.10
2019-06-20T04:19:44.657Z,47.70
2019-06-20T04:22:13.046Z,47.60
2019-06-20T04:24:41.497Z,47.60
2019-06-20T04:27:09.745Z,48.30
2019-06-20T04:29:38.056Z,48.70
2019-06-20T04:32:06.548Z,48.40
2019-06-20T04:34:34.931Z,49.00
2019-06-20T04:37:03.217Z,48.70
2019-06-20T04:39:31.472Z,49.30
2019-06-20T04:41:59.751Z,48.90
2019-06-20T04:44:27.988Z,49.30
2019-06-20T04:47:00.512Z,49.30
2019-06-20T04:49:28.825Z,49.20
2019-06-20T04:51:57.100Z,48.80
2019-06-20T04:54:25.370Z,47.70
2019-06-20T04:56:53.636Z,47.60
2019-06-20T04:59:21.904Z,47.70
2019-06-20T05:01:50.212Z,47.80
2019-06-20T05:04:18.530Z,47.80
2019-06-20T05:06:48.233Z,47.70
2019-06-20T05:09:16.592Z,47.70
2019-06-20T05:11:44.815Z,47.70
2019-06-20T05:14:13.095Z,48.10
2019-06-20T05:16:41.352Z,48.20
2019-06-20T05:19:09.642Z,47.90
2019-06-20T05:21:37.915Z,48.10
2019-06-20T05:24:06.202Z,48.00
2019-06-20T05:26:34.486Z,48.00
2019-06-20T05:29:05.402Z,47.70
2019-06-20T05:31:32.746Z,47.70
2019-06-20T05:34:01.048Z,47.80
2019-06-20T05:36:29.322Z,47.90
2019-06-20T05:38:58.633Z,47.70
2019-06-20T05:41:26.892Z,47.80
2019-06-20T05:43:55.175Z,47.60
2019-06-20T05:46:23.408Z,47.70
2019-06-20T05:48:51.679Z,48.20
2019-06-20T05:51:20.031Z,49.00
2019-06-20T05:53:48.303Z,48.20
2019-06-20T05:56:16.605Z,48.30
2019-06-20T05:58:44.838Z,48.30
2019-06-20T06:01:13.129Z,48.40
2019-06-20T06:03:41.398Z,49.80
2019-06-20T06:06:09.693Z,48.60
2019-06-20T06:08:38.021Z,48.60
2019-06-20T06:11:07.007Z,48.70
2019-06-20T06:13:35.259Z,48.90
2019-06-20T06:16:03.548Z,48.90
2019-06-20T06:18:31.864Z,49.00
2019-06-20T06:21:00.152Z,47.10
2019-06-20T06:23:28.411Z,46.30
2019-06-20T06:25:57.686Z,45.80
2019-06-20T06:28:25.919Z,45.30
2019-06-20T06:30:54.197Z,45.00
2019-06-20T06:33:22.558Z,44.30
2019-06-20T06:35:50.823Z,44.30
2019-06-20T06:38:21.850Z,43.40
2019-06-20T06:40:49.156Z,43.40
2019-06-20T06:43:17.463Z,44.20
2019-06-20T06:45:45.711Z,43.50
2019-06-20T06:48:13.985Z,43.60
2019-06-20T06:50:42.253Z,43.50
2019-06-20T06:53:10.559Z,43.50
2019-06-20T06:55:38.808Z,43.50
2019-06-20T06:58:07.070Z,43.50
2019-06-20T07:00:35.403Z,43.50
2019-06-20T07:03:04.079Z,43.60
2019-06-20T07:05:32.354Z,43.60
2019-06-20T07:08:00.698Z,43.60
2019-06-20T07:10:28.970Z,43.60
2019-06-20T07:12:57.339Z,43.60
2019-06-20T07:15:25.901Z,43.60
2019-06-20T07:17:54.147Z,43.30
2019-06-20T07:20:22.424Z,42.70
2019-06-20T07:22:50.684Z,42.70
2019-06-20T07:25:18.979Z,42.70
2019-06-20T07:27:47.226Z,42.50
2019-06-20T07:30:15.554Z,42.80
2019-06-20T07:32:43.857Z,42.60
2019-06-20T07:35:12.837Z,41.90
2019-06-20T07:37:41.120Z,42.10
2019-06-20T07:40:09.537Z,42.00
2019-06-20T07:42:37.900Z,41.90
2019-06-20T07:45:09.459Z,42.80
2019-06-20T07:47:37.806Z,42.80
2019-06-20T07:50:07.902Z,42.30
2019-06-20T07:52:36.247Z,42.30
2019-06-20T07:55:08.591Z,42.40
2019-06-20T07:57:36.845Z,42.90
2019-06-20T08:00:09.015Z,42.70
2019-06-20T08:02:37.287Z,42.70
2019-06-20T08:05:06.508Z,42.80
2019-06-20T08:07:35.778Z,42.70
2019-06-20T08:10:07.342Z,42.90
2019-06-20T08:12:35.711Z,42.90
2019-06-20T08:15:15.048Z,42.80
2019-06-20T08:17:36.082Z,43.30
2019-06-20T08:20:05.899Z,43.40
2019-06-20T08:22:34.204Z,43.60
2019-06-20T08:25:03.320Z,43.50
2019-06-20T08:27:51.375Z,43.10
2019-06-20T08:30:29.983Z,42.90
2019-06-20T08:33:01.258Z,42.60
2019-06-20T08:35:29.470Z,42.70
2019-06-20T08:37:59.363Z,43.30
2019-06-20T08:40:29.254Z,42.70
2019-06-20T08:42:58.871Z,43.30
2019-06-20T08:45:28.920Z,43.50
2019-06-20T08:47:58.294Z,43.10
2019-06-20T08:50:26.697Z,42.40
2019-06-20T08:52:56.153Z,42.90
2019-06-20T08:55:24.966Z,43.00
2019-06-20T08:57:55.639Z,43.10
2019-06-20T09:00:23.535Z,43.70
2019-06-20T09:02:51.805Z,43.60
2019-06-20T09:05:20.157Z,43.40
2019-06-20T09:07:48.442Z,42.50
2019-06-20T09:10:16.752Z,42.50
2019-06-20T09:12:45.282Z,43.20
2019-06-20T09:15:13.567Z,43.70
2019-06-20T09:17:41.818Z,42.30
2019-06-20T09:20:11.728Z,43.40
2019-06-20T09:22:39.992Z,43.70
2019-06-20T09:25:08.635Z,43.70
2019-06-20T09:27:37.389Z,44.40
2019-06-20T09:30:09.879Z,43.70
2019-06-20T09:32:38.264Z,43.70
2019-06-20T09:35:09.275Z,43.70
2019-06-20T09:37:37.741Z,43.70
2019-06-20T09:40:07.897Z,43.70
2019-06-20T09:42:36.913Z,43.80
2019-06-20T09:45:10.323Z,43.70
2019-06-20T09:47:38.650Z,43.70
2019-06-20T09:50:10.367Z,43.70
2019-06-20T09:52:39.353Z,43.70
2019-06-20T09:55:07.929Z,43.70
2019-06-20T09:57:36.217Z,43.60
2019-06-20T10:00:11.652Z,43.60
2019-06-20T10:02:40.419Z,43.70
2019-06-20T10:05:09.090Z,43.70
2019-06-20T10:07:37.428Z,43.60
2019-06-20T10:10:10.754Z,43.60
2019-06-20T10:12:39.089Z,43.60
2019-06-20T10:15:16.424Z,43.60
2019-06-20T10:17:45.734Z,43.60
2019-06-20T10:20:14.817Z,43.60
2019-06-20T10:22:44.066Z,43.60
2019-06-20T10:25:13.673Z,43.70
2019-06-20T10:27:42.027Z,43.70
2019-06-20T10:30:14.431Z,43.60
2019-06-20T10:32:40.405Z,43.60
2019-06-20T10:35:08.702Z,43.60
2019-06-20T10:37:37.052Z,43.60
2019-06-20T10:40:08.110Z,43.60
2019-06-20T10:42:36.465Z,43.60
2019-06-20T10:45:06.714Z,43.60
2019-06-20T10:47:36.176Z,43.60
2019-06-20T10:50:09.080Z,43.70
2019-06-20T10:52:37.357Z,43.60
2019-06-20T10:55:08.694Z,43.60
2019-06-20T10:57:37.016Z,43.60
2019-06-20T11:00:12.156Z,43.60
2019-06-20T11:02:41.773Z,43.70
2019-06-20T11:05:10.633Z,43.60
2019-06-20T11:07:40.346Z,43.60
2019-06-20T11:10:10.346Z,43.80
2019-06-20T11:12:45.548Z,43.70
2019-06-20T11:15:09.177Z,43.70
2019-06-20T11:17:38.745Z,43.10
2019-06-20T11:20:08.332Z,43.70
2019-06-20T11:22:38.027Z,43.70
2019-06-20T11:25:07.550Z,43.70
2019-06-20T11:27:37.047Z,43.70
2019-06-20T11:30:15.422Z,43.70
2019-06-20T11:32:43.749Z,43.70
2019-06-20T11:35:12.361Z,43.70
2019-06-20T11:37:42.160Z,44.40
2019-06-20T11:40:10.827Z,43.70
2019-06-20T11:42:39.915Z,43.70
2019-06-20T11:45:08.540Z,43.70
2019-06-20T11:47:38.196Z,43.70
2019-06-20T11:50:06.941Z,43.70
2019-06-20T11:52:42.094Z,43.70
2019-06-20T11:55:10.134Z,43.70
2019-06-20T11:57:38.803Z,43.70
2019-06-20T12:00:07.239Z,43.70
2019-06-20T12:02:35.510Z,43.70
2019-06-20T12:05:08.936Z,43.70
2019-06-20T12:07:39.592Z,43.70
2019-06-20T12:10:08.511Z,43.70
2019-06-20T12:12:39.058Z,43.70
2019-06-20T12:15:07.544Z,44.70
2019-06-20T12:17:35.996Z,43.70
2019-06-20T12:20:07.781Z,43.70
2019-06-20T12:22:36.085Z,43.70
2019-06-20T12:25:06.059Z,45.30
2019-06-20T12:27:34.319Z,43.70
2019-06-20T12:30:02.946Z,43.80
2019-06-20T12:32:31.244Z,44.20
2019-06-20T12:34:59.527Z,45.20
2019-06-20T12:37:27.854Z,45.40
2019-06-20T12:39:56.243Z,45.70
2019-06-20T12:42:24.497Z,45.70
2019-06-20T12:44:52.762Z,45.80
2019-06-20T12:47:21.094Z,45.20
2019-06-20T12:49:50.632Z,45.70
2019-06-20T12:52:19.017Z,45.70
2019-06-20T12:54:47.301Z,45.70
2019-06-20T12:57:15.633Z,45.20
2019-06-20T12:59:44.562Z,44.80
2019-06-20T13:02:12.980Z,45.00
2019-06-20T13:04:41.680Z,45.20
2019-06-20T13:07:10.087Z,44.90
2019-06-20T13:09:39.434Z,44.40
2019-06-20T13:12:08.323Z,43.80
2019-06-20T13:14:36.604Z,43.70
2019-06-20T13:17:04.992Z,43.70
2019-06-20T13:19:33.329Z,43.70
2019-06-20T13:22:01.637Z,43.70
2019-06-20T13:24:29.891Z,43.70
2019-06-20T13:26:58.205Z,43.70
2019-06-20T13:29:26.479Z,43.70
2019-06-20T13:32:04.010Z,43.80
2019-06-20T13:34:24.824Z,43.80
2019-06-20T13:36:53.089Z,43.30
2019-06-20T13:39:21.377Z,43.00
2019-06-20T13:41:51.336Z,43.70
2019-06-20T13:44:19.639Z,43.70
2019-06-20T13:46:48.969Z,42.90
2019-06-20T13:49:17.412Z,42.60
2019-06-20T13:51:45.880Z,42.80
2019-06-20T13:54:14.252Z,42.80
2019-06-20T13:56:43.598Z,42.50
2019-06-20T13:59:11.997Z,42.40
2019-06-20T14:01:41.925Z,42.50
2019-06-20T14:04:10.291Z,42.50
2019-06-20T14:06:38.536Z,43.70
2019-06-20T14:09:07.327Z,42.30
2019-06-20T14:11:35.684Z,42.50
2019-06-20T14:14:04.067Z,42.80
2019-06-20T14:16:32.394Z,42.80
2019-06-20T14:19:01.687Z,42.30
2019-06-20T14:21:30.096Z,42.70
2019-06-20T14:23:58.391Z,42.30
2019-06-20T14:26:26.642Z,42.60
2019-06-20T14:28:55.732Z,42.30
2019-06-20T14:31:24.075Z,42.80
2019-06-20T14:33:52.357Z,42.50
2019-06-20T14:36:20.601Z,42.70
2019-06-20T14:38:49.492Z,42.60
2019-06-20T14:41:17.942Z,42.30
2019-06-20T14:43:47.547Z,42.30
2019-06-20T14:46:16.181Z,42.40
2019-06-20T14:48:45.474Z,42.30
2019-06-20T14:51:14.646Z,39.50
2019-06-20T14:53:44.430Z,41.00
2019-06-20T14:56:12.970Z,40.40
2019-06-20T14:58:41.229Z,42.30
2019-06-20T15:01:09.508Z,41.60
2019-06-20T15:03:37.878Z,42.60
2019-06-20T15:06:06.158Z,42.60
2019-06-20T15:08:34.404Z,42.10
2019-06-20T15:11:02.789Z,41.20
2019-06-20T15:13:31.208Z,42.40
2019-06-20T15:15:59.478Z,42.20
2019-06-20T15:18:27.883Z,42.20
2019-06-20T15:20:59.179Z,42.10
2019-06-20T15:23:26.117Z,42.10
2019-06-20T15:25:54.387Z,43.60
2019-06-20T15:28:22.669Z,42.00
2019-06-20T15:30:50.957Z,41.90
2019-06-20T15:33:19.287Z,44.00
2019-06-20T15:35:49.213Z,43.10
2019-06-20T15:38:17.650Z,45.40
2019-06-20T15:40:47.937Z,46.50
2019-06-20T15:43:15.991Z,46.90
2019-06-20T15:45:44.281Z,45.60
2019-06-20T15:48:12.580Z,46.30
2019-06-20T15:50:40.843Z,46.20
2019-06-20T15:53:09.114Z,45.60
2019-06-20T15:55:37.360Z,45.30
2019-06-20T15:58:05.648Z,44.40
2019-06-20T16:00:33.940Z,44.20
2019-06-20T16:03:09.911Z,43.60
2019-06-20T16:05:32.242Z,42.90
2019-06-20T16:08:02.625Z,42.80
2019-06-20T16:10:32.562Z,42.90
2019-06-20T16:13:00.804Z,43.00
2019-06-20T16:15:29.239Z,43.00
2019-06-20T16:17:57.619Z,43.00
2019-06-20T16:20:25.920Z,43.00
2019-06-20T16:22:54.284Z,43.10
2019-06-20T16:25:22.626Z,43.10
2019-06-20T16:27:50.889Z,43.10
2019-06-20T16:30:19.243Z,43.20
2019-06-20T16:32:47.563Z,43.30
2019-06-20T16:35:15.855Z,43.20
2019-06-20T16:37:44.184Z,43.20
2019-06-20T16:40:12.484Z,43.20
2019-06-20T16:42:40.747Z,43.20
2019-06-20T16:45:09.167Z,43.30
2019-06-20T16:47:37.686Z,43.30
2019-06-20T16:50:07.788Z,43.30
2019-06-20T16:52:36.061Z,43.30
2019-06-20T16:55:05.613Z,43.30
2019-06-20T16:57:33.841Z,43.30
2019-06-20T17:00:02.393Z,43.30
2019-06-20T17:02:30.699Z,43.30
2019-06-20T17:04:58.956Z,43.30
2019-06-20T17:07:28.046Z,43.30
2019-06-20T17:09:56.385Z,43.30
2019-06-20T17:12:24.663Z,43.30
2019-06-20T17:14:52.953Z,43.30
2019-06-20T17:17:21.217Z,42.90
2019-06-20T17:19:49.552Z,43.30
2019-06-20T17:22:17.856Z,43.30
2019-06-20T17:24:46.122Z,43.30
2019-06-20T17:27:14.367Z,44.00
2019-06-20T17:29:42.678Z,43.30
2019-06-20T17:32:10.933Z,43.30
2019-06-20T17:34:39.212Z,43.30
2019-06-20T17:37:07.487Z,42.80
2019-06-20T17:39:35.777Z,44.20
2019-06-20T17:42:04.011Z,42.70
2019-06-20T17:44:32.284Z,43.30
2019-06-20T17:47:00.556Z,42.60
2019-06-20T17:49:28.866Z,43.30
2019-06-20T17:51:57.124Z,42.70
2019-06-20T17:54:25.428Z,43.30
2019-06-20T17:56:53.768Z,42.40
2019-06-20T17:59:22.917Z,42.80
2019-06-20T18:01:51.407Z,43.30
2019-06-20T18:04:19.680Z,43.30
2019-06-20T18:06:48.006Z,43.30
2019-06-20T18:09:16.303Z,43.30
2019-06-20T18:11:44.538Z,42.90
2019-06-20T18:14:12.840Z,43.30
2019-06-20T18:16:41.124Z,42.20
2019-06-20T18:19:09.372Z,42.80
2019-06-20T18:21:37.641Z,43.30
2019-06-20T18:24:05.889Z,43.20
2019-06-20T18:26:34.182Z,42.70
2019-06-20T18:29:02.451Z,43.40
2019-06-20T18:31:30.806Z,42.60
2019-06-20T18:33:59.087Z,43.40
2019-06-20T18:36:27.436Z,43.40
2019-06-20T18:38:55.782Z,42.80
2019-06-20T18:41:24.051Z,43.30
2019-06-20T18:43:52.321Z,42.80
2019-06-20T18:46:20.573Z,42.70
2019-06-20T18:48:48.857Z,43.40
2019-06-20T18:51:17.131Z,43.70
2019-06-20T18:53:45.419Z,43.20
2019-06-20T18:56:13.650Z,43.20
2019-06-20T18:58:42.042Z,43.40
2019-06-20T19:01:10.289Z,43.40
2019-06-20T19:03:38.579Z,43.40
2019-06-20T19:06:06.851Z,43.00
2019-06-20T19:08:35.127Z,42.90
2019-06-20T19:11:03.507Z,43.00
2019-06-20T19:13:51.318Z,42.70
2019-06-20T19:16:19.647Z,42.70
2019-06-20T19:18:47.962Z,42.30
2019-06-20T19:21:16.277Z,43.50
2019-06-20T19:23:44.551Z,42.50
2019-06-20T19:26:12.925Z,43.30
2019-06-20T19:28:41.189Z,43.30
2019-06-20T19:31:09.467Z,43.30
2019-06-20T19:33:37.765Z,42.80
2019-06-20T19:36:06.049Z,43.30
2019-06-20T19:38:34.348Z,43.10
2019-06-20T19:41:02.682Z,43.50
2019-06-20T19:43:30.951Z,43.20
2019-06-20T19:45:59.207Z,43.30
2019-06-20T19:48:27.467Z,43.30
2019-06-20T19:50:55.748Z,43.30
2019-06-20T19:53:24.087Z,43.30
2019-06-20T19:55:52.353Z,43.40
2019-06-20T19:58:20.607Z,43.40
2019-06-20T20:00:48.953Z,43.60
2019-06-20T20:03:17.253Z,43.30
2019-06-20T20:05:45.588Z,43.30
2019-06-20T20:08:13.848Z,43.30
2019-06-20T20:10:46.991Z,43.30
2019-06-20T20:13:15.878Z,43.40
2019-06-20T20:15:45.082Z,42.80
2019-06-20T20:18:13.859Z,43.30
2019-06-20T20:20:43.205Z,43.30
2019-06-20T20:23:11.571Z,43.20
2019-06-20T20:25:39.921Z,44.00
2019-06-20T20:28:08.202Z,43.30
2019-06-20T20:30:36.488Z,43.30
2019-06-20T20:33:05.186Z,43.40
2019-06-20T20:35:35.834Z,43.10
2019-06-20T20:38:03.635Z,42.80
2019-06-20T20:40:31.904Z,43.40
2019-06-20T20:43:00.220Z,43.30
2019-06-20T20:45:28.685Z,43.30
2019-06-20T20:47:56.972Z,43.40
2019-06-20T20:50:25.204Z,43.30
2019-06-20T20:52:53.835Z,43.30
2019-06-20T20:55:22.074Z,43.40
2019-06-20T20:57:50.396Z,43.10
2019-06-20T21:00:27.862Z,43.30
2019-06-20T21:02:56.270Z,43.30
2019-06-20T21:05:24.927Z,43.30
2019-06-20T21:07:53.306Z,43.10
2019-06-20T21:10:21.655Z,43.00
2019-06-20T21:12:49.978Z,43.00
2019-06-20T21:15:18.342Z,43.30
2019-06-20T21:17:46.630Z,42.40
2019-06-20T21:20:15.129Z,43.30
2019-06-20T21:22:43.392Z,43.10
2019-06-20T21:25:11.941Z,43.00
2019-06-20T21:27:40.233Z,43.10
2019-06-20T21:30:08.980Z,42.80
2019-06-20T21:32:37.272Z,43.00
2019-06-20T21:35:06.859Z,42.70
2019-06-20T21:37:35.146Z,43.30
2019-06-20T21:40:04.773Z,42.50
2019-06-20T21:42:33.037Z,42.60
2019-06-20T21:45:01.326Z,42.80
2019-06-20T21:47:29.612Z,42.40
2019-06-20T21:49:57.932Z,42.60
2019-06-20T21:52:26.212Z,42.70
2019-06-20T21:54:54.478Z,42.10
2019-06-20T21:57:22.758Z,42.30
2019-06-20T21:59:51.021Z,43.10
2019-06-20T22:02:19.344Z,42.50
2019-06-20T22:04:54.570Z,42.50
2019-06-20T22:07:17.678Z,42.50
2019-06-20T22:09:45.961Z,42.30
2019-06-20T22:12:14.338Z,42.80
2019-06-20T22:14:42.626Z,42.90
2019-06-20T22:17:10.876Z,42.70
2019-06-20T22:19:39.254Z,42.10
2019-06-20T22:22:07.543Z,42.90
2019-06-20T22:24:35.792Z,42.00
2019-06-20T22:27:04.165Z,42.40
2019-06-20T22:29:32.494Z,42.60
2019-06-20T22:32:00.803Z,42.10
2019-06-20T22:34:29.085Z,42.40
2019-06-20T22:36:57.390Z,42.50
2019-06-20T22:39:25.674Z,42.20
2019-06-20T22:41:53.933Z,42.10
2019-06-20T22:44:22.177Z,42.00
2019-06-20T22:46:50.465Z,43.20
2019-06-20T22:49:18.713Z,42.50
2019-06-20T22:51:46.957Z,42.20
2019-06-20T22:54:15.235Z,43.30
2019-06-20T22:56:43.497Z,43.40
2019-06-20T22:59:11.777Z,43.40
2019-06-20T23:01:40.013Z,43.40
2019-06-20T23:04:08.497Z,43.40
2019-06-20T23:06:36.859Z,43.40
2019-06-20T23:09:06.763Z,43.40
2019-06-20T23:11:35.060Z,43.40
2019-06-20T23:14:03.394Z,43.40
2019-06-20T23:16:31.900Z,43.40
2019-06-20T23:19:00.178Z,43.40
2019-06-20T23:21:28.421Z,43.40
2019-06-20T23:23:56.708Z,43.40
2019-06-20T23:26:24.980Z,43.50
2019-06-20T23:29:11.175Z,43.50
2019-06-20T23:31:39.495Z,43.50
2019-06-20T23:34:07.753Z,43.40
2019-06-20T23:36:36.021Z,43.40
2019-06-20T23:39:05.652Z,43.40
2019-06-20T23:41:33.917Z,43.40
2019-06-20T23:44:02.193Z,43.40
2019-06-20T23:46:30.469Z,43.40
2019-06-20T23:48:58.858Z,43.40
2019-06-20T23:51:28.760Z,43.50
2019-06-20T23:53:57.010Z,43.40
2019-06-20T23:56:25.315Z,43.40
2019-06-20T23:58:53.642Z,43.40
